createdAt,value
2019-05-20T00:03:03.133Z,40.14
2019-05-20T00:06:09.133Z,39.95
2019-05-20T00:09:15.022Z,39.58
2019-05-20T00:12:20.743Z,40.20
2019-05-20T00:15:26.412Z,40.46
2019-05-20T00:18:32.170Z,39.95
2019-05-20T00:21:37.940Z,40.22
2019-05-20T00:24:43.681Z,41.11
2019-05-20T00:27:49.527Z,41.26
2019-05-20T00:30:55.231Z,41.26
2019-05-20T00:34:00.914Z,41.42
2019-05-20T00:37:09.963Z,43.54
2019-05-20T00:40:15.866Z,43.35
2019-05-20T00:43:21.576Z,43.04
2019-05-20T00:46:27.259Z,43.11
2019-05-20T00:49:33.107Z,42.35
2019-05-20T00:52:38.926Z,43.96
2019-05-20T00:55:44.702Z,43.47
2019-05-20T00:58:50.414Z,44.56
2019-05-20T01:01:56.085Z,42.98
2019-05-20T01:05:01.775Z,42.11
2019-05-20T01:08:07.465Z,41.68
2019-05-20T01:11:13.187Z,41.73
2019-05-20T01:14:18.917Z,43.10
2019-05-20T01:17:24.663Z,43.37
2019-05-20T01:20:30.383Z,44.23
2019-05-20T01:23:36.037Z,45.15
2019-05-20T01:26:41.743Z,43.21
2019-05-20T01:29:47.494Z,43.03
2019-05-20T01:32:53.169Z,43.48
2019-05-20T01:35:58.908Z,43.88
2019-05-20T01:39:05.416Z,43.80
2019-05-20T01:42:11.196Z,44.16
2019-05-20T01:45:18.055Z,44.69
2019-05-20T01:48:23.744Z,44.26
2019-05-20T01:51:29.410Z,45.10
2019-05-20T01:54:35.070Z,44.36
2019-05-20T01:57:40.791Z,44.86
2019-05-20T02:00:46.541Z,44.81
2019-05-20T02:03:52.274Z,45.12
2019-05-20T02:07:01.344Z,44.40
2019-05-20T02:10:07.589Z,44.14
2019-05-20T02:13:13.329Z,44.01
2019-05-20T02:16:19.683Z,44.21
2019-05-20T02:19:25.354Z,43.88
2019-05-20T02:22:31.077Z,44.37
2019-05-20T02:25:36.897Z,44.37
2019-05-20T02:28:44.438Z,44.33
2019-05-20T02:31:50.204Z,44.26
2019-05-20T02:34:57.443Z,44.43
2019-05-20T02:38:03.454Z,44.51
2019-05-20T02:41:09.349Z,45.34
2019-05-20T02:44:17.589Z,45.42
2019-05-20T02:47:30.894Z,45.19
2019-05-20T02:50:39.322Z,45.06
2019-05-20T02:53:50.530Z,44.16
2019-05-20T02:56:57.486Z,43.97
2019-05-20T03:00:03.325Z,43.93
2019-05-20T03:03:10.747Z,43.40
2019-05-20T03:06:16.931Z,43.20
2019-05-20T03:09:22.607Z,44.06
2019-05-20T03:12:28.420Z,44.00
2019-05-20T03:15:34.116Z,44.44
2019-05-20T03:18:39.824Z,44.86
2019-05-20T03:21:45.479Z,43.98
2019-05-20T03:24:51.220Z,43.99
2019-05-20T03:27:56.906Z,43.91
2019-05-20T03:31:02.646Z,44.91
2019-05-20T03:34:08.487Z,44.46
2019-05-20T03:37:14.136Z,44.81
2019-05-20T03:40:19.841Z,44.81
2019-05-20T03:43:25.563Z,44.75
2019-05-20T03:46:31.334Z,45.09
2019-05-20T03:49:37.009Z,45.13
2019-05-20T03:52:42.741Z,45.33
2019-05-20T03:55:48.418Z,45.31
2019-05-20T03:58:54.111Z,45.22
2019-05-20T04:01:59.876Z,44.64
2019-05-20T04:05:05.883Z,45.08
2019-05-20T04:08:11.829Z,45.26
2019-05-20T04:11:17.535Z,45.04
2019-05-20T04:14:23.306Z,45.16
2019-05-20T04:17:28.969Z,45.19
2019-05-20T04:20:34.904Z,44.69
2019-05-20T04:23:41.003Z,44.23
2019-05-20T04:26:47.139Z,43.82
2019-05-20T04:29:52.820Z,43.94
2019-05-20T04:32:58.604Z,43.56
2019-05-20T04:36:04.372Z,43.81
2019-05-20T04:39:10.043Z,43.18
2019-05-20T04:42:15.726Z,43.21
2019-05-20T04:45:21.544Z,43.38
2019-05-20T04:48:27.204Z,43.85
2019-05-20T04:51:32.919Z,43.69
2019-05-20T04:54:38.626Z,43.45
2019-05-20T04:57:44.294Z,43.68
2019-05-20T05:00:57.532Z,43.17
2019-05-20T05:04:03.195Z,43.15
2019-05-20T05:07:08.981Z,42.55
2019-05-20T05:10:15.192Z,42.28
2019-05-20T05:13:21.751Z,41.66
2019-05-20T05:16:27.596Z,41.50
2019-05-20T05:19:33.549Z,41.91
2019-05-20T05:22:39.316Z,40.60
2019-05-20T05:25:45.273Z,40.51
2019-05-20T05:28:51.949Z,39.69
2019-05-20T05:31:57.779Z,39.66
2019-05-20T05:35:03.455Z,39.11
2019-05-20T05:38:09.349Z,38.85
2019-05-20T05:41:15.101Z,39.29
2019-05-20T05:44:20.787Z,39.48
2019-05-20T05:47:26.484Z,39.21
2019-05-20T05:50:36.749Z,38.35
2019-05-20T05:53:42.149Z,38.54
2019-05-20T05:56:47.889Z,38.85
2019-05-20T05:59:53.707Z,38.71
2019-05-20T06:02:59.365Z,39.03
2019-05-20T06:06:12.275Z,39.46
2019-05-20T06:09:12.653Z,38.44
2019-05-20T06:12:18.335Z,38.48
2019-05-20T06:15:24.875Z,37.88
2019-05-20T06:18:30.538Z,37.20
2019-05-20T06:21:36.272Z,37.34
2019-05-20T06:24:41.931Z,37.22
2019-05-20T06:27:47.658Z,38.38
2019-05-20T06:30:53.321Z,38.34
2019-05-20T06:33:59.246Z,37.90
2019-05-20T06:37:07.524Z,38.02
2019-05-20T06:40:13.617Z,37.93
2019-05-20T06:43:19.380Z,37.55
2019-05-20T06:46:27.963Z,37.33
2019-05-20T06:49:33.632Z,37.04
2019-05-20T06:52:39.335Z,35.66
2019-05-20T06:55:45.081Z,35.81
2019-05-20T06:58:50.813Z,36.36
2019-05-20T07:01:56.821Z,34.51
2019-05-20T07:05:03.671Z,34.76
2019-05-20T07:08:09.339Z,33.39
2019-05-20T07:11:15.073Z,32.72
2019-05-20T07:14:20.901Z,33.26
2019-05-20T07:17:29.548Z,33.13
2019-05-20T07:20:50.187Z,33.08
2019-05-20T07:23:57.243Z,32.32
2019-05-20T07:27:02.977Z,32.03
2019-05-20T07:30:09.121Z,32.22
2019-05-20T07:33:14.863Z,31.92
2019-05-20T07:36:25.945Z,32.68
2019-05-20T07:39:31.680Z,32.28
2019-05-20T07:42:37.413Z,31.89
2019-05-20T07:45:43.902Z,33.00
2019-05-20T07:48:50.492Z,32.21
2019-05-20T07:51:57.196Z,31.58
2019-05-20T07:55:03.868Z,31.48
2019-05-20T07:58:11.018Z,30.93
2019-05-20T08:01:17.236Z,30.61
2019-05-20T08:04:23.455Z,30.61
2019-05-20T08:07:49.875Z,29.75
2019-05-20T08:10:36.971Z,29.81
2019-05-20T08:13:42.844Z,29.16
2019-05-20T08:16:48.530Z,28.94
2019-05-20T08:19:54.219Z,29.37
2019-05-20T08:22:59.954Z,30.54
2019-05-20T08:26:05.709Z,30.49
2019-05-20T08:29:11.403Z,29.00
2019-05-20T08:32:17.058Z,29.41
2019-05-20T08:35:25.241Z,30.14
2019-05-20T08:38:30.921Z,29.05
2019-05-20T08:41:36.830Z,29.88
2019-05-20T08:44:42.690Z,30.02
2019-05-20T08:47:50.187Z,29.93
2019-05-20T08:50:55.987Z,29.92
2019-05-20T08:54:03.360Z,29.91
2019-05-20T08:57:09.092Z,29.96
2019-05-20T09:00:23.207Z,27.80
2019-05-20T09:03:30.485Z,29.21
2019-05-20T09:06:36.469Z,28.62
2019-05-20T09:09:42.287Z,27.58
2019-05-20T09:12:48.077Z,27.71
2019-05-20T09:15:54.835Z,27.29
2019-05-20T09:19:00.512Z,26.96
2019-05-20T09:22:06.236Z,27.10
2019-05-20T09:25:14.189Z,26.59
2019-05-20T09:28:20.443Z,29.95
2019-05-20T09:31:26.534Z,29.52
2019-05-20T09:34:32.569Z,28.93
2019-05-20T09:37:39.503Z,28.43
2019-05-20T09:40:47.791Z,29.19
2019-05-20T09:43:53.532Z,28.96
2019-05-20T09:46:59.246Z,28.19
2019-05-20T09:50:05.972Z,28.46
2019-05-20T09:53:11.829Z,28.44
2019-05-20T09:56:17.627Z,29.61
2019-05-20T09:59:23.465Z,30.30
2019-05-20T10:02:34.507Z,31.20
2019-05-20T10:05:37.632Z,31.18
2019-05-20T10:08:45.289Z,29.98
2019-05-20T10:11:51.643Z,29.23
2019-05-20T10:14:57.385Z,29.65
2019-05-20T10:18:03.277Z,29.64
2019-05-20T10:21:09.071Z,29.47
2019-05-20T10:24:14.768Z,28.97
2019-05-20T10:27:20.621Z,27.83
2019-05-20T10:30:26.494Z,28.78
2019-05-20T10:33:32.216Z,27.73
2019-05-20T10:36:37.880Z,26.99
2019-05-20T10:39:43.656Z,26.42
2019-05-20T10:42:49.470Z,27.17
2019-05-20T10:45:55.234Z,26.00
2019-05-20T10:49:02.135Z,26.06
2019-05-20T10:52:07.900Z,24.36
2019-05-20T10:55:13.716Z,24.98
2019-05-20T10:58:19.527Z,24.47
2019-05-20T11:01:25.266Z,24.19
2019-05-20T11:04:30.959Z,24.93
2019-05-20T11:07:36.867Z,25.11
2019-05-20T11:10:42.740Z,23.88
2019-05-20T11:13:48.461Z,24.15
2019-05-20T11:16:54.168Z,24.40
2019-05-20T11:19:59.866Z,25.21
2019-05-20T11:23:05.621Z,25.15
2019-05-20T11:26:11.412Z,25.98
2019-05-20T11:29:17.121Z,26.25
2019-05-20T11:32:22.860Z,26.61
2019-05-20T11:35:28.663Z,26.92
2019-05-20T11:38:34.587Z,25.50
2019-05-20T11:41:52.613Z,25.29
2019-05-20T11:44:47.876Z,24.97
2019-05-20T11:47:53.605Z,25.34
2019-05-20T11:50:59.284Z,26.33
2019-05-20T11:54:04.995Z,26.12
2019-05-20T11:57:10.672Z,25.77
2019-05-20T12:00:17.089Z,25.41
2019-05-20T12:03:22.775Z,24.92
2019-05-20T12:06:28.489Z,25.14
2019-05-20T12:09:48.300Z,24.87
2019-05-20T12:12:41.515Z,24.45
2019-05-20T12:15:47.217Z,24.81
2019-05-20T12:18:52.934Z,24.76
2019-05-20T12:21:58.665Z,24.44
2019-05-20T12:25:04.647Z,24.23
2019-05-20T12:28:10.695Z,25.01
2019-05-20T12:31:16.478Z,25.02
2019-05-20T12:34:22.309Z,26.08
2019-05-20T12:37:27.975Z,25.66
2019-05-20T12:40:33.879Z,24.69
2019-05-20T12:43:39.527Z,25.19
2019-05-20T12:46:45.246Z,24.67
2019-05-20T12:49:51.087Z,24.98
2019-05-20T12:52:56.781Z,25.29
2019-05-20T12:56:02.536Z,25.87
2019-05-20T12:59:08.273Z,26.62
2019-05-20T13:02:17.405Z,26.58
2019-05-20T13:05:23.297Z,27.04
2019-05-20T13:08:29.543Z,26.63
2019-05-20T13:11:38.962Z,25.58
2019-05-20T13:14:44.678Z,25.04
2019-05-20T13:17:50.999Z,25.25
2019-05-20T13:20:56.776Z,25.08
2019-05-20T13:24:02.448Z,23.28
2019-05-20T13:27:08.267Z,23.84
2019-05-20T13:30:14.691Z,24.04
2019-05-20T13:33:20.355Z,23.57
2019-05-20T13:36:26.058Z,24.17
2019-05-20T13:39:31.760Z,22.35
2019-05-20T13:42:37.613Z,21.10
2019-05-20T13:45:43.383Z,20.72
2019-05-20T13:48:50.421Z,21.03
2019-05-20T13:51:56.102Z,20.80
2019-05-20T13:55:01.816Z,20.30
2019-05-20T13:58:07.595Z,20.90
2019-05-20T14:01:13.335Z,20.45
2019-05-20T14:04:18.979Z,20.72
2019-05-20T14:07:24.781Z,20.45
2019-05-20T14:10:30.482Z,20.64
2019-05-20T14:13:36.163Z,21.03
2019-05-20T14:16:41.860Z,20.88
2019-05-20T14:19:47.632Z,20.98
2019-05-20T14:22:56.388Z,20.84
2019-05-20T14:26:02.219Z,21.25
2019-05-20T14:29:08.007Z,21.65
2019-05-20T14:32:13.696Z,22.21
2019-05-20T14:35:19.576Z,22.11
2019-05-20T14:38:25.419Z,22.50
2019-05-20T14:41:31.167Z,27.98
2019-05-20T14:44:36.840Z,31.09
2019-05-20T14:47:43.219Z,32.35
2019-05-20T14:50:51.009Z,33.85
2019-05-20T14:53:58.499Z,34.27
2019-05-20T14:57:05.980Z,33.71
2019-05-20T15:00:14.430Z,33.74
2019-05-20T15:03:21.577Z,32.82
2019-05-20T15:06:29.247Z,32.33
2019-05-20T15:09:36.049Z,31.80
2019-05-20T15:12:42.652Z,32.28
2019-05-20T15:15:48.817Z,32.59
2019-05-20T15:18:56.082Z,32.62
2019-05-20T15:22:04.118Z,33.27
2019-05-20T15:25:11.791Z,33.91
2019-05-20T15:28:18.096Z,33.82
2019-05-20T15:31:24.444Z,34.71
2019-05-20T15:34:32.189Z,35.41
2019-05-20T15:37:40.344Z,35.70
2019-05-20T15:40:46.877Z,36.36
2019-05-20T15:43:53.868Z,36.47
2019-05-20T15:47:00.791Z,36.49
2019-05-20T15:50:10.012Z,36.92
2019-05-20T15:53:42.178Z,37.62
2019-05-20T15:56:49.622Z,37.79
2019-05-20T15:59:55.447Z,38.87
2019-05-20T16:03:01.305Z,40.82
2019-05-20T16:06:07.147Z,40.76
2019-05-20T16:09:16.868Z,40.76
2019-05-20T16:12:20.384Z,40.88
2019-05-20T16:15:26.040Z,40.83
2019-05-20T16:18:31.701Z,40.93
2019-05-20T16:21:37.505Z,41.37
2019-05-20T16:24:45.328Z,42.23
2019-05-20T16:27:50.714Z,42.31
2019-05-20T16:30:56.373Z,42.52
2019-05-20T16:34:02.148Z,41.69
2019-05-20T16:37:07.915Z,41.49
2019-05-20T16:40:14.214Z,40.94
2019-05-20T16:43:20.034Z,40.45
2019-05-20T16:46:25.705Z,40.69
2019-05-20T16:49:31.426Z,40.81
2019-05-20T16:52:37.151Z,41.11
2019-05-20T16:55:42.885Z,40.77
2019-05-20T16:58:48.546Z,40.81
2019-05-20T17:01:54.247Z,40.92
2019-05-20T17:05:00.180Z,40.64
2019-05-20T17:08:06.283Z,40.75
2019-05-20T17:11:12.034Z,40.61
2019-05-20T17:14:21.383Z,40.50
2019-05-20T17:17:27.069Z,40.76
2019-05-20T17:20:32.760Z,40.97
2019-05-20T17:23:38.423Z,40.64
2019-05-20T17:26:44.182Z,40.89
2019-05-20T17:29:50.237Z,40.93
2019-05-20T17:32:55.919Z,40.78
2019-05-20T17:36:01.706Z,40.68
2019-05-20T17:39:08.528Z,41.84
2019-05-20T17:42:14.291Z,41.64
2019-05-20T17:45:20.208Z,41.90
2019-05-20T17:48:26.091Z,41.49
2019-05-20T17:51:33.318Z,41.20
2019-05-20T17:54:39.088Z,41.12
2019-05-20T17:57:44.782Z,40.77
2019-05-20T18:00:50.645Z,40.58
2019-05-20T18:03:56.380Z,41.29
2019-05-20T18:07:02.149Z,40.52
2019-05-20T18:10:08.968Z,41.08
2019-05-20T18:13:14.750Z,40.87
2019-05-20T18:16:20.516Z,40.99
2019-05-20T18:19:26.180Z,42.33
2019-05-20T18:22:31.952Z,41.65
2019-05-20T18:25:37.659Z,41.48
2019-05-20T18:28:43.325Z,41.49
2019-05-20T18:31:49.108Z,41.48
2019-05-20T18:34:54.868Z,41.58
2019-05-20T18:38:00.707Z,41.40
2019-05-20T18:41:06.497Z,41.59
2019-05-20T18:44:13.383Z,42.34
2019-05-20T18:47:19.171Z,42.03
2019-05-20T18:50:24.882Z,41.58
2019-05-20T18:53:30.670Z,41.78
2019-05-20T18:56:36.440Z,41.21
2019-05-20T18:59:42.242Z,40.82
2019-05-20T19:02:47.892Z,40.55
2019-05-20T19:05:53.564Z,40.69
2019-05-20T19:08:59.232Z,40.79
2019-05-20T19:12:05.074Z,40.77
2019-05-20T19:15:12.139Z,40.77
2019-05-20T19:18:17.900Z,41.06
2019-05-20T19:24:27.858Z,41.07
2019-05-20T19:27:33.567Z,40.81
2019-05-20T19:30:39.233Z,40.68
2019-05-20T19:33:44.967Z,40.54
2019-05-20T19:36:50.654Z,40.76
2019-05-20T19:40:05.956Z,40.71
2019-05-20T19:43:13.242Z,40.66
2019-05-20T19:46:18.962Z,40.88
2019-05-20T19:49:26.245Z,40.70
2019-05-20T19:52:32.131Z,40.97
2019-05-20T19:55:37.751Z,42.03
2019-05-20T19:58:46.461Z,42.73
2019-05-20T20:01:56.109Z,41.69
2019-05-20T20:05:11.908Z,42.27
2019-05-20T20:08:09.743Z,43.34
2019-05-20T20:11:15.512Z,43.53
2019-05-20T20:14:21.221Z,42.57
2019-05-20T20:17:27.019Z,41.51
2019-05-20T20:20:32.833Z,41.49
2019-05-20T20:23:38.634Z,41.56
2019-05-20T20:26:44.436Z,41.41
2019-05-20T20:29:50.138Z,43.05
2019-05-20T20:32:55.828Z,45.49
2019-05-20T20:36:01.475Z,45.59
2019-05-20T20:39:09.582Z,45.53
2019-05-20T20:42:15.285Z,47.25
2019-05-20T20:45:21.107Z,46.10
2019-05-20T20:48:26.772Z,46.46
2019-05-20T20:51:32.460Z,46.70
2019-05-20T20:54:38.244Z,46.23
2019-05-20T20:57:43.893Z,45.78
2019-05-20T21:00:49.783Z,46.35
2019-05-20T21:03:55.460Z,46.82
2019-05-20T21:07:01.198Z,47.20
2019-05-20T21:10:07.812Z,47.00
2019-05-20T21:13:15.126Z,47.40
2019-05-20T21:16:21.038Z,48.03
2019-05-20T21:19:26.836Z,47.62
2019-05-20T21:22:32.542Z,46.85
2019-05-20T21:25:38.471Z,48.16
2019-05-20T21:28:44.419Z,48.04
2019-05-20T21:31:50.095Z,49.03
2019-05-20T21:34:55.811Z,49.18
2019-05-20T21:38:01.524Z,50.16
2019-05-20T21:41:07.229Z,50.23
2019-05-20T21:44:17.272Z,50.28
2019-05-20T21:47:28.243Z,50.47
2019-05-20T21:50:33.918Z,49.80
2019-05-20T21:53:39.626Z,49.44
2019-05-20T21:56:45.376Z,50.66
2019-05-20T21:59:51.108Z,50.66
2019-05-20T22:02:57.406Z,49.84
2019-05-20T22:06:03.339Z,48.76
2019-05-20T22:09:09.183Z,49.75
2019-05-20T22:12:15.018Z,49.78
2019-05-20T22:15:20.938Z,49.39
2019-05-20T22:18:27.271Z,49.37
2019-05-20T22:21:45.108Z,48.87
2019-05-20T22:24:50.887Z,49.44
2019-05-20T22:27:56.605Z,49.81
2019-05-20T22:31:06.803Z,50.18
2019-05-20T22:34:13.764Z,50.68
2019-05-20T22:37:19.461Z,49.85
2019-05-20T22:40:25.142Z,49.23
2019-05-20T22:43:30.889Z,48.59
2019-05-20T22:46:36.611Z,48.39
2019-05-20T22:49:42.287Z,48.83
2019-05-20T22:52:50.472Z,49.26
2019-05-20T22:55:56.158Z,49.57
2019-05-20T22:59:01.854Z,50.32
2019-05-20T23:02:07.576Z,50.06
2019-05-20T23:05:13.644Z,50.58
2019-05-20T23:08:19.331Z,50.01
2019-05-20T23:11:25.009Z,50.87
2019-05-20T23:14:33.019Z,50.38
2019-05-20T23:17:38.688Z,50.07
2019-05-20T23:20:44.386Z,49.54
2019-05-20T23:23:50.057Z,49.48
2019-05-20T23:26:55.725Z,49.35
2019-05-20T23:30:01.385Z,49.35
2019-05-20T23:33:09.136Z,50.92
2019-05-20T23:36:15.030Z,50.84
2019-05-20T23:39:20.703Z,51.19
2019-05-20T23:42:26.391Z,50.33
2019-05-20T23:45:32.113Z,49.58
2019-05-20T23:48:37.876Z,49.74
2019-05-20T23:51:43.720Z,49.47
2019-05-20T23:54:52.188Z,49.39
2019-05-20T23:57:57.851Z,49.24
